D/T METAR WX W/DIR W/SPE G/SPE TEMP DEWP
9/12/19 11:50 EGPB 091150Z 35024G35KT 9999 -SHSN FEW025CB SCT035 03/M02 Q1007 -SHSN N (350°) 27.6mph 40.3mph 3°C -2°C
9/12/19 11:20 EGPB 091120Z 36021G31KT 9999 -SHSN SCT021CB 03/M02 Q1006 NOSIG -SHSN N (360°) 24.2mph 35.7mph 3°C -2°C
9/12/19 10:50 EGPB 091050Z 35018KT 9999 VCSH FEW020CB 03/M04 Q1005 VCSH N (350°) 20.7mph 3°C -4°C
9/12/19 10:20 EGPB 091020Z 34022KT 9999 VCSH SCT020CB 03/M04 Q1004 TEMPO SHRA VCSH NNW (340°) 25.3mph 3°C -4°C
9/12/19 09:50 EGPB 090950Z 34021G34KT 9999 -SHRA FEW015CB SCT032 03/M02 Q1004 TEMPO SHRA -SHRA NNW (340°) 24.2mph 39.1mph 3°C -2°C
9/12/19 09:20 EGPB 090920Z 35022KT 9999 VCSH FEW022CB 03/M06 Q1003 TEMPO SHRA VCSH N (350°) 25.3mph 3°C -6°C
9/12/19 08:50 EGPB 090850Z 36022G34KT 9999 VCSH FEW021CB SCT038 03/M03 Q1001 TEMPO SHRA VCSH N (360°) 25.3mph 39.1mph 3°C -3°C
9/12/19 08:20 EGPB 090820Z 35022G37KT 9999 VCSH FEW021CB SCT032 03/M02 Q1001 TEMPO SHRA VCSH N (350°) 25.3mph 42.6mph 3°C -2°C
9/12/19 07:50 EGPB 090750Z 01015KT 9999 VCSH FEW023CB SCT038 03/M01 Q0999 TEMPO SHRA VCSH N (10°) 17.3mph 3°C -1°C
9/12/19 07:20 EGPB 090720Z 34023G34KT 9999 -SHRAGS FEW019CB SCT036 04/M02 Q0998 TEMPO SHRA -SHRA -SHGS NNW (340°) 26.5mph 39.1mph 4°C -2°C
9/12/19 06:50 EGPB 090650Z 35024G37KT 9999 VCSH FEW018CB SCT029 04/M02 Q0997 TEMPO SHRA VCSH N (350°) 27.6mph 42.6mph 4°C -2°C
9/12/19 06:20 EGPB 090620Z 36022G39KT 9999 VCSH FEW017CB SCT030 04/M01 Q0996 TEMPO SHRA VCSH N (360°) 25.3mph 44.9mph 4°C -1°C
9/12/19 05:50 EGPB 090550Z AUTO 01024G34KT 9999 BKN029/// 04/M01 Q0995 N (10°) 27.6mph 39.1mph 4°C -1°C
9/12/19 05:20 EGPB 090520Z AUTO 36022G37KT 9999 BKN021/// BKN037/// 04/M00 Q0994 N (360°) 25.3mph 42.6mph 4°C 0°C
9/12/19 04:50 EGPB 090450Z AUTO 35022G36KT 9999 SCT031/// 05/M03 Q0993 N (350°) 25.3mph 41.4mph 5°C -3°C
9/12/19 04:20 EGPB 090420Z AUTO 35022G33KT 9999 FEW033/// 05/M01 Q0991 N (350°) 25.3mph 38.0mph 5°C -1°C
9/12/19 03:50 EGPB 090350Z AUTO 36022G34KT 9999 BKN029/// BKN045/// 05/M00 Q0991 N (360°) 25.3mph 39.1mph 5°C 0°C
9/12/19 03:20 EGPB 090320Z AUTO 36022G33KT 9999 FEW039/// 05/M01 Q0989 N (360°) 25.3mph 38.0mph 5°C -1°C
9/12/19 02:50 EGPB 090250Z AUTO 36025G38KT 9999 FEW023/// 05/M01 Q0988 N (360°) 28.8mph 43.7mph 5°C -1°C
9/12/19 02:20 EGPB 090220Z AUTO 36022G33KT 9999 FEW031/// 04/M00 Q0987 N (360°) 25.3mph 38.0mph 4°C 0°C
9/12/19 01:50 EGPB 090150Z AUTO 36018G37KT 9999 FEW022/// 04/00 Q0986 N (360°) 20.7mph 42.6mph 4°C 0°C
9/12/19 01:20 EGPB 090120Z AUTO 01018KT 9999 FEW032/// 04/01 Q0985 N (10°) 20.7mph 4°C 1°C
9/12/19 00:50 EGPB 090050Z AUTO 01028G40KT 9999 FEW019/// BKN025/// BKN039/// 04/00 Q0984 N (10°) 32.2mph 46.0mph 4°C 0°C
9/12/19 00:20 EGPB 090020Z 01021KT 9999 FEW018CB 05/00 Q0982 TEMPO SHRA N (10°) 24.2mph 5°C 0°C
8/12/19 23:50 EGPB 082350Z 01022KT 9999 VCSH FEW018CB SCT030 05/01 Q0981 RESHRA TEMPO SHRA VCSH N (10°) 25.3mph 5°C 1°C
8/12/19 23:20 EGPB 082320Z 01022KT 9999 FEW018CB 05/02 Q0979 TEMPO SHRA N (10°) 25.3mph 5°C 2°C
8/12/19 22:50 EGPB 082250Z 02022KT 9999 VCSH FEW018CB SCT025 05/02 Q0978 NOSIG VCSH NNE (20°) 25.3mph 5°C 2°C
8/12/19 22:20 EGPB 082220Z 02024G36KT 9999 -SHRA FEW018CB SCT025 05/02 Q0977 TEMPO SHRA -SHRA NNE (20°) 27.6mph 41.4mph 5°C 2°C
8/12/19 21:50 EGPB 082150Z 02022KT 9999 VCSH FEW020CB SCT032 05/02 Q0975 TEMPO SHRA VCSH NNE (20°) 25.3mph 5°C 2°C
8/12/19 21:20 EGPB 082120Z 04026KT 9999 -SHRA SCT012 BKN035 06/02 Q0974 TEMPO SHRA -SHRA NE (40°) 29.9mph 6°C 2°C
8/12/19 20:50 EGPB 082050Z 04026G38KT 9999 -SHRA SCT012 BKN017 05/03 Q0973 RESHRA RESHSN TEMPO SHRA -SHRA SHSN NE (40°) 29.9mph 43.7mph 5°C 3°C
8/12/19 20:20 EGPB 082020Z 03023KT 7000 SHRASN SCT009 BKN021 04/02 Q0972 TEMPO NSW SHRA SHSN NNE (30°) 26.5mph 4°C 2°C
8/12/19 20:20 EGPB 082020Z 03023KT 7000 SHRASN SCT009 BKN021 04/02 Q0972 SHRA SHSN NNE (30°) 26.5mph 4°C 2°C
8/12/19 19:20 EGPB 081920Z 27011KT 9999 FEW015CB SCT030 08/04 Q0969 TEMPO SHRA W (270°) 12.7mph 8°C 4°C
8/12/19 18:50 EGPB 081850Z 25015KT 9999 FEW015CB 07/03 Q0968 TEMPO SHRA WSW (250°) 17.3mph 7°C 3°C
8/12/19 18:20 EGPB 081820Z 24016KT 9999 FEW015CB SCT022 07/04 Q0968 TEMPO SHRA WSW (240°) 18.4mph 7°C 4°C
8/12/19 17:50 EGPB 081750Z 27016KT 9999 -SHRA FEW014CB SCT020 BKN038 07/05 Q0967 TEMPO SHRA -SHRA W (270°) 18.4mph 7°C 5°C
8/12/19 17:20 EGPB 081720Z 23021KT 9999 FEW014CB SCT021 07/05 Q0967 TEMPO SHRA SW (230°) 24.2mph 7°C 5°C
8/12/19 16:50 EGPB 081650Z 24023KT 9999 FEW021CB SCT039 08/04 Q0967 TEMPO SHRA WSW (240°) 26.5mph 8°C 4°C
8/12/19 16:20 EGPB 081620Z 24023KT 9999 FEW018CB SCT025 07/04 Q0967 TEMPO SHRA WSW (240°) 26.5mph 7°C 4°C
8/12/19 15:50 EGPB 081550Z 25025KT 9999 FEW018CB SCT020 08/04 Q0967 TEMPO SHRA WSW (250°) 28.8mph 8°C 4°C
8/12/19 15:20 EGPB 081520Z 24026KT 9999 FEW018CB 07/04 Q0967 TEMPO SHRA WSW (240°) 29.9mph 7°C 4°C
8/12/19 14:50 EGPB 081450Z 24025KT 9999 VCSH FEW018CB 07/04 Q0966 TEMPO SHRA VCSH WSW (240°) 28.8mph 7°C 4°C
8/12/19 14:20 EGPB 081420Z 24026KT 9999 VCSH FEW018CB SCT020 07/04 Q0966 TEMPO SHRA VCSH WSW (240°) 29.9mph 7°C 4°C
8/12/19 13:50 EGPB 081350Z 25027KT 9999 VCSH FEW018CB SCT021 07/04 Q0967 TEMPO SHRA VCSH WSW (250°) 31.1mph 7°C 4°C
8/12/19 13:20 EGPB 081320Z 24027KT 9999 VCSH FEW018CB SCT029 07/04 Q0967 TEMPO SHRA VCSH WSW (240°) 31.1mph 7°C 4°C
8/12/19 12:50 EGPB 081250Z 24027KT 9999 VCSH FEW022CB SCT030 07/04 Q0967 TEMPO SHRA VCSH WSW (240°) 31.1mph 7°C 4°C
8/12/19 12:20 EGPB 081220Z 25029G39KT 9999 VCSH FEW022CB SCT028 08/04 Q0967 TEMPO SHRA VCSH WSW (250°) 33.4mph 44.9mph 8°C 4°C